Time;durP1;ratioP1;P1;durP2;ratioP2;P2;SDS_P1;SDS_P2;PMS_P1;PMS_P2;Temp;Humidity;BMP_temperature;BMP_pressure;BME280_temperature;BME280_humidity;BME280_pressure;Samples;Min_cycle;Max_cycle;Signal;HPM_P1;HPM_P2
2022/03/08 00:00:25;;;;;;;14.73;2.63;;;21.80;99.90;;;;;;5034225;28;20045;-65
2022/03/08 00:02:54;;;;;;;7.93;1.75;;;21.70;99.90;;;;;;5036050;28;20037;-67
2022/03/08 00:05:22;;;;;;;11.13;2.35;;;21.70;99.90;;;;;;5038343;28;20044;-66
2022/03/08 00:07:51;;;;;;;11.75;1.67;;;21.70;99.90;;;;;;5030667;28;20050;-66
2022/03/08 00:10:19;;;;;;;9.32;1.77;;;21.60;99.90;;;;;;5036575;28;20034;-66
2022/03/08 00:12:47;;;;;;;9.93;2.10;;;21.60;99.90;;;;;;5024731;28;20068;-66
2022/03/08 00:15:21;;;;;;;10.23;2.80;;;21.60;99.90;;;;;;5029170;28;21492;-66
2022/03/08 00:17:48;;;;;;;10.48;2.45;;;21.50;99.90;;;;;;5033785;28;20421;-66
2022/03/08 00:20:17;;;;;;;11.88;2.20;;;21.50;99.90;;;;;;5031248;28;20769;-65
2022/03/08 00:22:46;;;;;;;14.23;2.05;;;21.40;99.90;;;;;;5024518;28;20471;-66
2022/03/08 00:25:14;;;;;;;14.30;1.98;;;21.40;99.90;;;;;;5030581;28;20041;-66
2022/03/08 00:27:48;;;;;;;7.40;2.33;;;21.40;99.90;;;;;;5025484;28;20073;-66
2022/03/08 00:30:18;;;;;;;12.45;2.08;;;21.40;99.90;;;;;;5023046;28;20041;-66
2022/03/08 00:32:45;;;;;;;10.70;2.83;;;21.30;99.90;;;;;;5025708;28;20040;-65
2022/03/08 00:35:13;;;;;;;7.25;1.55;;;21.30;99.90;;;;;;5036793;28;20049;-66
2022/03/08 00:37:40;;;;;;;7.55;1.60;;;21.30;99.90;;;;;;5041531;28;20033;-66
2022/03/08 00:40:10;;;;;;;16.20;2.22;;;21.30;99.90;;;;;;5041119;28;20029;-65
2022/03/08 00:42:37;;;;;;;10.60;1.48;;;21.30;99.90;;;;;;5038109;28;20040;-65
2022/03/08 00:45:07;;;;;;;11.20;1.38;;;21.30;99.90;;;;;;5037167;28;20030;-65
2022/03/08 00:47:36;;;;;;;11.00;2.08;;;21.40;99.90;;;;;;5036403;28;20040;-66
2022/03/08 00:50:06;;;;;;;9.18;1.67;;;21.40;99.90;;;;;;5028732;28;20101;-66
2022/03/08 00:52:34;;;;;;;9.20;1.40;;;21.40;99.90;;;;;;5039393;28;20037;-66
2022/03/08 00:55:01;;;;;;;8.50;1.52;;;21.40;99.90;;;;;;5036861;28;20041;-67
2022/03/08 00:57:29;;;;;;;9.57;1.45;;;21.30;99.90;;;;;;5032496;28;20052;-67
2022/03/08 00:59:56;;;;;;;8.32;2.03;;;21.30;99.90;;;;;;5032260;28;20026;-66
2022/03/08 01:02:23;;;;;;;11.82;1.17;;;21.30;99.90;;;;;;5029319;28;20034;-66
2022/03/08 01:04:50;;;;;;;8.68;1.48;;;21.30;99.90;;;;;;5028664;28;20033;-66
2022/03/08 01:07:18;;;;;;;11.23;1.40;;;21.30;99.90;;;;;;5023230;28;20072;-66
2022/03/08 01:09:45;;;;;;;8.88;1.33;;;21.30;99.90;;;;;;5029245;28;20046;-66
2022/03/08 01:12:13;;;;;;;8.35;2.05;;;21.30;99.90;;;;;;5043253;28;20529;-66
2022/03/08 01:14:40;;;;;;;7.85;1.98;;;21.20;99.90;;;;;;5029204;28;20060;-66
2022/03/08 01:17:08;;;;;;;7.28;1.73;;;21.20;99.90;;;;;;5041787;28;20037;-66
2022/03/08 01:19:35;;;;;;;6.35;1.27;;;21.20;99.90;;;;;;5038004;28;20529;-66
2022/03/08 01:22:02;;;;;;;5.72;1.70;;;21.20;99.90;;;;;;5035386;28;20033;-66
2022/03/08 01:24:30;;;;;;;5.18;1.90;;;21.20;99.90;;;;;;5042921;28;20030;-66
2022/03/08 01:26:58;;;;;;;5.43;1.60;;;21.20;99.90;;;;;;5036166;28;20045;-66
2022/03/08 01:29:26;;;;;;;5.72;0.95;;;21.10;99.90;;;;;;5033586;28;20101;-66
2022/03/08 01:31:53;;;;;;;6.97;1.13;;;21.00;99.90;;;;;;5046853;28;20583;-66
2022/03/08 01:34:20;;;;;;;7.32;1.58;;;21.00;99.90;;;;;;5036149;28;20037;-66
2022/03/08 01:36:48;;;;;;;4.88;1.80;;;21.00;99.90;;;;;;5041549;28;20068;-66
2022/03/08 01:39:15;;;;;;;3.08;0.98;;;21.00;99.90;;;;;;5039290;28;20026;-66
2022/03/08 01:41:43;;;;;;;7.10;1.05;;;21.00;99.90;;;;;;5040452;28;20046;-66
2022/03/08 01:44:10;;;;;;;8.05;1.40;;;20.90;99.90;;;;;;5039447;28;20030;-67
2022/03/08 01:46:38;;;;;;;10.75;1.80;;;21.00;99.90;;;;;;5041636;28;20040;-66
2022/03/08 01:49:07;;;;;;;8.25;1.50;;;20.90;99.90;;;;;;5036877;28;20097;-66
2022/03/08 01:55:27;;;;;;;7.28;1.65;;;20.90;99.90;;;;;;5092138;28;20294;-66
2022/03/08 01:57:55;;;;;;;7.95;1.17;;;20.90;99.90;;;;;;5087253;28;20024;-67
2022/03/08 02:00:31;;;;;;;6.95;1.23;;;20.90;99.90;;;;;;5095760;28;20035;-67
2022/03/08 02:03:00;;;;;;;8.73;2.38;;;20.80;99.90;;;;;;5081801;28;20021;-67
2022/03/08 02:05:29;;;;;;;7.78;1.83;;;20.80;99.90;;;;;;5095742;28;20028;-66
2022/03/08 02:07:56;;;;;;;6.85;1.08;;;20.70;99.90;;;;;;5095500;28;20084;-66
2022/03/08 02:10:24;;;;;;;7.85;1.25;;;20.70;99.90;;;;;;5091244;28;20213;-66
2022/03/08 02:12:51;;;;;;;7.30;1.30;;;20.60;99.90;;;;;;5089610;28;20036;-67
2022/03/08 02:15:25;;;;;;;8.77;1.95;;;20.60;99.90;;;;;;5085390;28;20031;-66
2022/03/08 02:17:55;;;;;;;17.45;3.05;;;20.60;99.90;;;;;;5096515;28;20028;-67
2022/03/08 02:20:22;;;;;;;5.93;1.65;;;20.60;99.90;;;;;;5090392;28;20032;-66
2022/03/08 02:22:50;;;;;;;13.27;2.17;;;20.60;99.90;;;;;;5084459;28;20066;-67
2022/03/08 02:25:19;;;;;;;10.60;1.80;;;20.60;99.90;;;;;;5093668;28;20048;-66
2022/03/08 02:27:50;;;;;;;18.38;2.60;;;20.60;99.90;;;;;;5097080;28;20035;-66
2022/03/08 02:30:19;;;;;;;12.93;2.33;;;20.60;99.90;;;;;;5089715;28;20092;-66
2022/03/08 02:32:48;;;;;;;16.63;2.28;;;20.60;99.90;;;;;;5081921;28;20041;-66
2022/03/08 02:35:22;;;;;;;12.52;2.33;;;20.60;99.90;;;;;;5086436;28;20049;-66
2022/03/08 02:38:02;;;;;;;13.57;2.80;;;20.60;99.90;;;;;;5089418;28;20005;-66
2022/03/08 02:40:33;;;;;;;14.80;3.22;;;20.50;99.90;;;;;;5093319;28;20035;-67
2022/03/08 02:43:02;;;;;;;19.98;2.70;;;20.50;99.90;;;;;;5090939;28;20023;-66
2022/03/08 02:45:30;;;;;;;15.35;2.60;;;20.50;99.90;;;;;;5095688;28;20011;-67
2022/03/08 02:47:58;;;;;;;19.85;2.78;;;20.50;99.90;;;;;;5090735;28;20084;-66
2022/03/08 02:50:25;;;;;;;16.02;2.30;;;20.50;99.90;;;;;;5095763;28;20037;-67
2022/03/08 02:52:55;;;;;;;21.75;2.33;;;20.50;99.90;;;;;;5096319;28;20027;-66
2022/03/08 02:55:26;;;;;;;10.75;2.83;;;20.50;99.90;;;;;;5094009;28;20029;-67
2022/03/08 02:57:55;;;;;;;11.38;2.20;;;20.50;99.90;;;;;;5089614;28;20024;-67
2022/03/08 03:00:24;;;;;;;10.52;2.92;;;20.50;99.90;;;;;;5085939;28;20086;-67
2022/03/08 03:02:53;;;;;;;8.57;2.08;;;20.50;99.90;;;;;;5081373;28;20059;-67
2022/03/08 03:05:20;;;;;;;12.30;2.30;;;20.50;99.90;;;;;;5078594;28;20021;-66
2022/03/08 03:07:48;;;;;;;13.65;2.30;;;20.50;99.90;;;;;;5075397;28;20038;-66
2022/03/08 03:10:18;;;;;;;8.75;2.70;;;20.50;99.90;;;;;;5082008;28;20041;-66
2022/03/08 03:12:46;;;;;;;7.65;2.35;;;20.50;99.90;;;;;;5086152;28;20034;-66
2022/03/08 03:15:16;;;;;;;6.68;1.95;;;20.50;99.90;;;;;;5079196;28;20036;-67
2022/03/08 03:17:44;;;;;;;7.28;1.95;;;20.50;99.90;;;;;;5070131;28;20033;-66
2022/03/08 03:20:13;;;;;;;6.10;2.08;;;20.50;99.90;;;;;;5077125;28;20039;-67
2022/03/08 03:22:42;;;;;;;9.73;2.60;;;20.40;99.90;;;;;;5071842;28;20037;-67
2022/03/08 03:25:11;;;;;;;7.20;2.38;;;20.50;99.90;;;;;;5069364;28;20021;-66
2022/03/08 03:27:39;;;;;;;11.63;2.53;;;20.40;99.90;;;;;;5095318;28;20076;-66
2022/03/08 03:30:10;;;;;;;8.20;2.83;;;20.40;99.90;;;;;;5075242;28;20061;-67
2022/03/08 03:32:39;;;;;;;8.90;2.65;;;20.40;99.90;;;;;;5076314;28;20028;-67
2022/03/08 03:35:08;;;;;;;10.32;3.60;;;20.40;99.90;;;;;;5069617;28;20033;-67
2022/03/08 03:37:36;;;;;;;8.48;2.88;;;20.50;99.90;;;;;;5068581;28;20065;-67
2022/03/08 03:40:08;;;;;;;9.25;4.32;;;20.40;99.90;;;;;;5071805;28;20025;-67
2022/03/08 03:42:37;;;;;;;10.07;4.28;;;20.40;99.90;;;;;;5066390;28;20048;-67
2022/03/08 03:45:05;;;;;;;9.00;4.03;;;20.30;99.90;;;;;;5069996;28;20378;-68
2022/03/08 03:47:33;;;;;;;12.32;4.68;;;20.30;99.90;;;;;;5082696;28;20658;-67
2022/03/08 03:50:01;;;;;;;11.55;3.85;;;20.30;99.90;;;;;;5073956;28;20112;-67
2022/03/08 03:52:29;;;;;;;12.30;4.82;;;20.30;99.90;;;;;;5069418;28;20047;-67
2022/03/08 03:54:57;;;;;;;14.75;3.90;;;20.30;99.90;;;;;;5065889;28;20035;-68
2022/03/08 03:57:24;;;;;;;17.77;4.63;;;20.30;99.90;;;;;;5070587;28;20088;-67
2022/03/08 03:59:54;;;;;;;13.07;4.82;;;20.30;99.90;;;;;;5064661;28;20036;-67
2022/03/08 04:02:22;;;;;;;9.30;3.45;;;20.30;99.90;;;;;;5062930;28;20423;-67
2022/03/08 04:04:49;;;;;;;10.20;3.33;;;20.30;99.90;;;;;;5076036;28;20017;-67
2022/03/08 04:07:17;;;;;;;12.45;3.50;;;20.20;99.90;;;;;;5077099;28;20033;-67
2022/03/08 04:09:44;;;;;;;11.38;2.75;;;20.20;99.90;;;;;;5074517;28;20041;-67
2022/03/08 04:12:12;;;;;;;9.32;2.70;;;20.20;99.90;;;;;;5070344;28;20031;-67
2022/03/08 04:14:39;;;;;;;8.05;2.08;;;20.20;99.90;;;;;;5064565;28;20553;-66
2022/03/08 04:17:07;;;;;;;9.18;2.30;;;20.20;99.90;;;;;;5074365;28;20017;-67
2022/03/08 04:19:35;;;;;;;9.85;2.58;;;20.20;99.90;;;;;;5068225;28;20515;-67
2022/03/08 04:22:02;;;;;;;9.73;3.10;;;20.30;99.90;;;;;;5070524;28;20021;-67
2022/03/08 04:24:30;;;;;;;8.70;2.03;;;20.20;99.90;;;;;;5068986;28;20024;-68
2022/03/08 04:26:57;;;;;;;8.57;2.55;;;20.20;99.90;;;;;;5062912;28;20082;-67
2022/03/08 04:29:25;;;;;;;6.53;1.73;;;20.20;99.90;;;;;;5072495;28;20036;-67
2022/03/08 04:31:53;;;;;;;4.00;1.60;;;20.10;99.90;;;;;;5077463;28;20013;-68
2022/03/08 04:34:20;;;;;;;8.90;1.42;;;20.10;99.90;;;;;;5078796;28;20020;-67
2022/03/08 04:36:48;;;;;;;4.90;1.42;;;20.10;99.90;;;;;;5073048;28;20021;-67
2022/03/08 04:39:15;;;;;;;7.47;1.42;;;20.10;99.90;;;;;;5069712;28;20025;-67
2022/03/08 04:41:43;;;;;;;5.07;1.25;;;20.10;99.90;;;;;;5071315;28;20025;-67
2022/03/08 04:44:10;;;;;;;6.78;1.40;;;20.10;99.90;;;;;;5070729;28;20096;-67
2022/03/08 04:46:38;;;;;;;7.38;1.48;;;20.10;99.90;;;;;;5073647;28;20021;-67
2022/03/08 04:49:06;;;;;;;5.43;1.48;;;20.10;99.90;;;;;;5069945;28;20023;-67
2022/03/08 04:51:33;;;;;;;5.80;0.90;;;20.10;99.90;;;;;;5070631;28;20041;-67
2022/03/08 04:54:01;;;;;;;10.00;1.45;;;20.10;99.90;;;;;;5073535;28;20029;-67
2022/03/08 04:56:28;;;;;;;4.47;1.15;;;20.20;99.90;;;;;;5072005;28;20055;-66
2022/03/08 04:58:56;;;;;;;4.80;0.90;;;20.10;99.90;;;;;;5067607;28;20067;-67
2022/03/08 05:01:24;;;;;;;9.43;0.90;;;20.10;99.90;;;;;;5068876;28;20052;-67
2022/03/08 05:03:51;;;;;;;4.78;0.80;;;20.10;99.90;;;;;;5066978;28;20083;-67
2022/03/08 05:06:19;;;;;;;7.43;1.50;;;20.10;99.90;;;;;;5070591;28;20021;-67
2022/03/08 05:08:47;;;;;;;7.13;1.10;;;20.10;99.90;;;;;;5070544;28;20033;-67
2022/03/08 05:11:14;;;;;;;4.55;0.73;;;20.10;99.90;;;;;;5073032;28;20028;-67
2022/03/08 05:13:42;;;;;;;6.05;1.25;;;20.10;99.90;;;;;;5075570;28;20028;-67
2022/03/08 05:16:10;;;;;;;4.32;0.90;;;20.10;99.90;;;;;;5070148;28;20029;-66
2022/03/08 05:18:37;;;;;;;5.25;0.75;;;20.00;99.90;;;;;;5068358;28;20147;-67
2022/03/08 05:21:05;;;;;;;6.28;0.95;;;20.00;99.90;;;;;;5070818;28;20024;-67
2022/03/08 05:23:34;;;;;;;4.28;0.60;;;20.10;99.90;;;;;;5068205;28;20032;-67
2022/03/08 05:26:04;;;;;;;2.55;0.70;;;20.00;99.90;;;;;;5073053;28;20017;-66
2022/03/08 05:28:33;;;;;;;6.63;0.80;;;20.00;99.90;;;;;;5068817;28;20029;-66
2022/03/08 05:31:01;;;;;;;2.58;0.57;;;20.00;99.90;;;;;;5071829;28;20043;-66
2022/03/08 05:33:28;;;;;;;1.02;0.32;;;19.90;99.90;;;;;;5067460;28;20024;-66
2022/03/08 05:35:56;;;;;;;2.85;0.22;;;20.00;99.90;;;;;;5073984;28;20362;-66
2022/03/08 05:38:23;;;;;;;1.15;0.38;;;19.90;99.90;;;;;;5073411;28;20033;-66
2022/03/08 05:40:51;;;;;;;2.10;0.30;;;19.90;99.90;;;;;;5069458;28;20032;-65
2022/03/08 05:43:18;;;;;;;1.95;0.20;;;19.90;99.90;;;;;;5065932;28;20077;-66
2022/03/08 05:45:46;;;;;;;4.38;0.70;;;19.90;99.90;;;;;;5068015;28;20040;-66
2022/03/08 05:48:14;;;;;;;2.40;0.38;;;19.80;99.90;;;;;;5079490;28;20025;-65
2022/03/08 05:50:41;;;;;;;2.92;0.47;;;19.70;99.90;;;;;;5075415;28;20040;-66
2022/03/08 05:53:09;;;;;;;1.88;0.63;;;19.70;99.90;;;;;;5070548;28;20021;-66
2022/03/08 05:55:36;;;;;;;2.90;0.60;;;19.70;99.90;;;;;;5075443;28;20102;-66
2022/03/08 05:58:04;;;;;;;1.40;0.30;;;19.70;99.90;;;;;;5070272;28;20082;-65
2022/03/08 06:00:33;;;;;;;1.85;0.20;;;19.70;99.90;;;;;;5077003;28;20032;-66
2022/03/08 06:03:03;;;;;;;4.40;0.82;;;19.70;99.90;;;;;;5067237;28;20033;-66
2022/03/08 06:05:31;;;;;;;2.60;0.77;;;19.70;99.90;;;;;;5072679;28;20511;-67
2022/03/08 06:08:01;;;;;;;2.95;0.50;;;19.70;99.90;;;;;;5068597;28;20021;-66
2022/03/08 06:10:47;;;;;;;2.50;0.20;;;19.60;99.90;;;;;;5070807;28;20044;-66
2022/03/08 06:13:21;;;;;;;3.58;0.55;;;19.70;99.90;;;;;;5029723;28;20707;-66
2022/03/08 06:15:49;;;;;;;6.38;0.82;;;19.70;99.90;;;;;;5067577;28;20040;-66
2022/03/08 06:18:16;;;;;;;6.18;0.47;;;19.70;99.90;;;;;;5069057;28;20024;-66
2022/03/08 06:20:45;;;;;;;2.05;0.32;;;19.70;99.90;;;;;;5074436;28;20029;-66
2022/03/08 06:23:13;;;;;;;5.18;0.82;;;19.70;99.90;;;;;;5066610;28;20127;-66
2022/03/08 06:25:41;;;;;;;5.03;0.90;;;19.70;99.90;;;;;;5065315;28;20021;-66
2022/03/08 06:28:09;;;;;;;4.53;0.60;;;19.70;99.90;;;;;;5072209;28;20013;-66
2022/03/08 06:30:36;;;;;;;4.60;0.80;;;19.80;99.90;;;;;;5074386;28;20056;-67
2022/03/08 06:33:04;;;;;;;2.08;0.47;;;19.80;99.90;;;;;;5068013;28;20043;-66
2022/03/08 06:35:32;;;;;;;5.13;0.77;;;19.80;99.90;;;;;;5075153;28;20047;-66
2022/03/08 06:37:59;;;;;;;4.97;0.80;;;19.80;99.90;;;;;;5071412;28;20035;-65
2022/03/08 06:40:27;;;;;;;4.57;0.75;;;19.80;99.90;;;;;;5078379;28;20025;-65
2022/03/08 06:42:55;;;;;;;2.05;0.68;;;19.90;99.90;;;;;;5073105;28;20119;-66
2022/03/08 06:45:22;;;;;;;4.20;0.32;;;19.80;99.90;;;;;;5068099;28;20044;-66
2022/03/08 06:47:50;;;;;;;3.42;0.85;;;19.90;99.90;;;;;;5074153;28;20012;-66
2022/03/08 06:50:17;;;;;;;2.28;0.40;;;19.90;99.90;;;;;;5068162;28;20044;-65
2022/03/08 06:52:45;;;;;;;4.78;0.77;;;19.80;99.90;;;;;;5070480;28;20017;-66
2022/03/08 06:55:13;;;;;;;3.20;0.40;;;19.90;99.90;;;;;;5070997;28;20036;-65
2022/03/08 06:57:41;;;;;;;3.78;0.60;;;19.90;99.90;;;;;;5069437;28;20017;-66
2022/03/08 07:00:09;;;;;;;2.78;0.38;;;19.90;99.90;;;;;;5064630;28;20045;-65
2022/03/08 07:02:36;;;;;;;3.25;0.90;;;19.90;99.90;;;;;;5073344;28;20384;-66
2022/03/08 07:05:04;;;;;;;3.80;0.32;;;19.90;99.90;;;;;;5071293;28;20028;-66
2022/03/08 07:07:32;;;;;;;1.92;0.30;;;19.90;99.90;;;;;;5066890;28;20031;-66
2022/03/08 07:10:00;;;;;;;1.90;0.25;;;19.90;99.90;;;;;;5068375;28;20037;-65
2022/03/08 07:12:27;;;;;;;2.47;0.30;;;19.90;99.90;;;;;;5064249;28;20025;-65
2022/03/08 07:14:57;;;;;;;2.78;0.20;;;19.90;99.90;;;;;;5069823;28;20021;-65
2022/03/08 07:17:24;;;;;;;1.27;0.30;;;19.90;99.90;;;;;;5076276;28;20029;-65
2022/03/08 07:19:52;;;;;;;1.23;0.17;;;19.90;99.90;;;;;;5064556;28;20028;-65
2022/03/08 07:22:22;;;;;;;0.80;0.20;;;20.00;99.90;;;;;;5075884;28;20036;-65
2022/03/08 07:24:57;;;;;;;1.40;0.15;;;20.00;99.90;;;;;;5058678;28;20043;-65
2022/03/08 07:27:24;;;;;;;1.75;0.10;;;20.00;99.90;;;;;;5064497;28;20048;-65
2022/03/08 07:29:51;;;;;;;0.65;0.10;;;20.00;99.90;;;;;;5069375;28;20036;-66
2022/03/08 07:32:19;;;;;;;1.23;0.10;;;20.00;99.90;;;;;;5060347;28;20020;-66
2022/03/08 07:34:47;;;;;;;0.95;0.10;;;20.00;99.90;;;;;;5058915;28;20025;-65
2022/03/08 07:37:15;;;;;;;0.63;0.03;;;20.00;99.90;;;;;;5064847;28;20427;-65
2022/03/08 07:39:42;;;;;;;0.30;0.10;;;20.00;99.90;;;;;;5075490;28;20021;-65
2022/03/08 07:42:12;;;;;;;2.25;0.30;;;20.10;99.90;;;;;;5068436;28;20048;-65
2022/03/08 07:44:40;;;;;;;0.63;0.15;;;20.00;99.90;;;;;;5060756;28;20028;-65
2022/03/08 07:47:08;;;;;;;0.40;0.10;;;20.10;99.90;;;;;;5064779;28;20875;-65
2022/03/08 07:49:36;;;;;;;0.73;0.10;;;20.10;99.90;;;;;;5068592;28;20044;-65
2022/03/08 07:52:04;;;;;;;0.10;0.00;;;20.10;99.90;;;;;;5064262;28;20029;-66
2022/03/08 07:54:32;;;;;;;0.52;0.10;;;20.00;99.90;;;;;;5059403;28;20036;-66
2022/03/08 07:56:59;;;;;;;0.30;0.10;;;20.00;99.90;;;;;;5058374;28;20024;-65
2022/03/08 07:59:26;;;;;;;0.15;0.10;;;20.00;99.90;;;;;;5061556;28;20020;-65
2022/03/08 08:01:53;;;;;;;0.17;0.10;;;20.10;99.90;;;;;;5060088;28;20053;-65
2022/03/08 08:04:20;;;;;;;0.47;0.20;;;19.90;99.90;;;;;;5061574;28;20043;-66
2022/03/08 08:06:48;;;;;;;0.85;0.30;;;19.90;99.90;;;;;;5063182;28;20033;-66
2022/03/08 08:09:16;;;;;;;0.80;0.20;;;19.90;99.90;;;;;;5067010;28;20024;-65
2022/03/08 08:11:43;;;;;;;2.83;0.10;;;19.90;99.90;;;;;;5062260;28;20033;-66
2022/03/08 08:14:10;;;;;;;0.50;0.10;;;19.90;99.90;;;;;;5065766;28;20033;-65
2022/03/08 08:16:37;;;;;;;0.15;0.10;;;19.80;99.90;;;;;;5064142;28;20111;-66
2022/03/08 08:19:05;;;;;;;0.80;0.10;;;19.80;99.90;;;;;;5060177;28;20029;-65
2022/03/08 08:21:32;;;;;;;0.10;0.00;;;19.90;99.90;;;;;;5059837;28;20025;-65
2022/03/08 08:24:01;;;;;;;0.30;0.08;;;19.90;99.90;;;;;;5073436;28;20043;-66
2022/03/08 08:26:28;;;;;;;2.47;0.30;;;20.00;99.90;;;;;;5067392;28;20461;-65
2022/03/08 08:28:55;;;;;;;0.65;0.10;;;20.00;99.90;;;;;;5058809;28;20017;-65
2022/03/08 08:31:23;;;;;;;1.30;0.25;;;20.00;99.90;;;;;;5062234;28;20024;-65
2022/03/08 08:33:51;;;;;;;0.47;0.10;;;20.00;99.90;;;;;;5070092;28;20051;-65
2022/03/08 08:36:18;;;;;;;0.38;0.10;;;20.10;99.90;;;;;;5073519;28;20374;-65
2022/03/08 08:38:46;;;;;;;1.27;0.17;;;20.20;99.90;;;;;;5060953;28;20103;-65
2022/03/08 08:41:13;;;;;;;1.52;0.30;;;20.10;99.90;;;;;;5063984;28;20080;-65
2022/03/08 08:43:40;;;;;;;1.65;0.40;;;20.10;99.90;;;;;;5062315;28;20510;-65
2022/03/08 08:46:08;;;;;;;1.98;0.20;;;20.10;99.90;;;;;;5062565;28;20354;-65
2022/03/08 08:48:35;;;;;;;1.05;0.10;;;20.10;99.90;;;;;;5063985;28;20025;-65
2022/03/08 08:51:03;;;;;;;0.93;0.10;;;20.10;99.90;;;;;;5058856;28;20059;-65
2022/03/08 08:53:30;;;;;;;0.55;0.10;;;20.10;99.90;;;;;;5058124;28;20029;-65
2022/03/08 08:55:57;;;;;;;1.73;0.20;;;20.10;99.90;;;;;;5054847;28;20025;-65
2022/03/08 08:58:24;;;;;;;8.18;2.17;;;20.10;99.90;;;;;;5057309;28;20482;-65
2022/03/08 09:00:52;;;;;;;0.73;0.32;;;20.10;99.90;;;;;;5059034;28;20033;-65
2022/03/08 09:03:19;;;;;;;3.03;0.40;;;20.10;99.90;;;;;;5066731;28;20017;-65
2022/03/08 09:05:47;;;;;;;0.63;0.20;;;20.00;99.90;;;;;;5059419;28;20436;-65
2022/03/08 09:08:14;;;;;;;0.68;0.25;;;20.00;99.90;;;;;;5058196;28;20025;-65
2022/03/08 09:10:42;;;;;;;1.17;0.30;;;20.00;99.90;;;;;;5058188;28;20037;-65
2022/03/08 09:13:09;;;;;;;1.50;0.20;;;20.00;99.90;;;;;;5059238;28;20017;-65
2022/03/08 09:15:37;;;;;;;1.95;0.50;;;20.00;99.90;;;;;;5068673;28;20029;-65
2022/03/08 09:18:07;;;;;;;2.25;0.20;;;20.00;99.90;;;;;;5060528;28;20031;-65
2022/03/08 09:20:34;;;;;;;1.15;0.10;;;19.90;99.90;;;;;;5062765;28;20370;-65
2022/03/08 09:23:02;;;;;;;1.25;0.20;;;19.80;99.90;;;;;;5066174;28;20025;-65
2022/03/08 09:25:30;;;;;;;0.70;0.10;;;19.80;99.90;;;;;;5068767;28;20036;-65
2022/03/08 09:27:58;;;;;;;0.30;0.10;;;19.70;99.90;;;;;;5060639;28;20488;-65
2022/03/08 09:30:26;;;;;;;2.08;0.35;;;19.60;99.90;;;;;;5064056;28;20024;-65
2022/03/08 09:32:56;;;;;;;0.47;0.00;;;19.70;99.90;;;;;;5057685;28;20021;-64
2022/03/08 09:35:23;;;;;;;3.45;0.10;;;19.60;99.90;;;;;;5058290;28;20048;-65
2022/03/08 09:37:51;;;;;;;0.17;0.15;;;19.60;99.90;;;;;;5072749;28;20025;-65
2022/03/08 09:40:18;;;;;;;0.60;0.00;;;19.60;99.90;;;;;;5064694;28;20112;-65
2022/03/08 09:42:46;;;;;;;1.00;0.13;;;19.60;99.90;;;;;;5061726;28;20032;-65
2022/03/08 09:45:14;;;;;;;2.22;0.10;;;19.60;99.90;;;;;;5056593;28;20092;-65
2022/03/08 09:47:42;;;;;;;1.13;0.03;;;19.60;99.90;;;;;;5062289;28;20029;-65
2022/03/08 09:50:11;;;;;;;1.10;0.10;;;19.60;99.90;;;;;;5066965;28;20043;-65
2022/03/08 09:52:41;;;;;;;2.67;0.50;;;19.70;99.90;;;;;;5068561;28;20096;-65
2022/03/08 09:55:12;;;;;;;2.15;0.22;;;19.60;99.90;;;;;;5064944;28;20104;-65
2022/03/08 09:57:41;;;;;;;3.65;0.68;;;19.60;99.90;;;;;;5063789;28;20052;-65
2022/03/08 10:00:10;;;;;;;3.33;0.40;;;19.60;99.90;;;;;;5070562;28;20032;-65
2022/03/08 10:02:46;;;;;;;2.40;0.43;;;19.60;99.90;;;;;;5057728;28;20048;-65
2022/03/08 10:05:14;;;;;;;2.08;0.43;;;19.50;99.90;;;;;;5057640;28;20084;-65
2022/03/08 10:08:07;;;;;;;3.38;0.70;;;19.50;99.90;;;;;;5064049;28;20061;-65
2022/03/08 10:10:43;;;;;;;2.80;0.30;;;19.50;99.90;;;;;;5067002;28;20025;-65
2022/03/08 10:13:12;;;;;;;2.17;0.40;;;19.50;99.90;;;;;;5063034;28;20070;-65
2022/03/08 10:15:40;;;;;;;2.92;0.20;;;19.50;99.90;;;;;;5063313;28;20024;-65
2022/03/08 10:18:08;;;;;;;1.42;0.32;;;19.40;99.90;;;;;;5062453;28;20481;-65
2022/03/08 10:20:36;;;;;;;3.65;0.30;;;19.30;99.90;;;;;;5066444;28;20107;-65
2022/03/08 10:23:12;;;;;;;3.15;0.22;;;19.30;99.90;;;;;;5063409;28;20098;-66
2022/03/08 10:25:41;;;;;;;4.38;0.40;;;19.30;99.90;;;;;;5070499;28;20073;-66
2022/03/08 10:28:09;;;;;;;4.95;0.82;;;19.10;99.90;;;;;;5072804;28;20088;-65
2022/03/08 10:30:47;;;;;;;6.15;1.23;;;19.00;99.90;;;;;;5077942;28;20065;-66
2022/03/08 10:33:19;;;;;;;5.25;0.90;;;18.90;99.90;;;;;;5079887;28;20028;-65
2022/03/08 10:35:50;;;;;;;5.88;1.13;;;18.80;99.90;;;;;;5077150;28;20005;-66
2022/03/08 10:38:17;;;;;;;4.03;0.68;;;18.80;99.90;;;;;;5079319;28;20031;-66
2022/03/08 10:40:45;;;;;;;6.30;0.88;;;18.80;99.90;;;;;;5074141;28;20021;-66
2022/03/08 10:43:15;;;;;;;4.07;0.70;;;18.90;99.90;;;;;;5081002;28;20061;-65
2022/03/08 10:45:46;;;;;;;6.03;0.93;;;18.90;99.90;;;;;;5084521;28;20017;-65
2022/03/08 10:48:14;;;;;;;6.82;0.88;;;18.90;99.90;;;;;;5092344;28;20055;-66
2022/03/08 10:50:43;;;;;;;5.55;1.02;;;18.90;99.90;;;;;;5083691;28;20068;-65
2022/03/08 10:53:12;;;;;;;5.80;1.33;;;18.90;99.90;;;;;;5083514;28;20009;-66
2022/03/08 10:55:49;;;;;;;4.32;0.55;;;18.90;99.90;;;;;;5074862;28;20063;-66
2022/03/08 10:58:18;;;;;;;3.97;0.68;;;18.90;99.90;;;;;;5082563;28;20039;-65
2022/03/08 11:00:54;;;;;;;7.10;0.80;;;18.90;99.90;;;;;;5073338;28;20025;-65
2022/03/08 11:03:23;;;;;;;6.85;0.77;;;18.90;99.90;;;;;;5075858;28;20119;-65
2022/03/08 11:05:53;;;;;;;5.68;0.68;;;18.90;99.90;;;;;;5071429;28;20081;-65
2022/03/08 11:08:22;;;;;;;4.22;0.68;;;18.90;99.90;;;;;;5070330;28;20535;-66
2022/03/08 11:10:49;;;;;;;5.28;0.63;;;18.90;99.90;;;;;;5072677;28;20040;-67
2022/03/08 11:13:19;;;;;;;2.35;0.77;;;18.90;99.90;;;;;;5070947;28;20032;-66
2022/03/08 11:15:46;;;;;;;4.90;1.08;;;18.90;99.90;;;;;;5071546;28;20029;-66
2022/03/08 11:18:15;;;;;;;6.63;0.73;;;18.80;99.90;;;;;;5075186;28;20021;-67
2022/03/08 11:20:45;;;;;;;4.28;0.75;;;18.80;99.90;;;;;;5072880;28;20041;-66
2022/03/08 11:23:13;;;;;;;2.92;0.45;;;18.80;99.90;;;;;;5071659;28;20451;-67
2022/03/08 11:25:46;;;;;;;2.80;0.60;;;18.70;99.90;;;;;;5072770;28;20036;-68
2022/03/08 11:28:13;;;;;;;4.32;1.00;;;18.60;99.90;;;;;;5075632;28;20063;-65
2022/03/08 11:30:51;;;;;;;3.30;0.20;;;18.70;99.90;;;;;;5077053;28;20063;-67
2022/03/08 11:33:43;;;;;;;5.65;0.70;;;18.70;99.90;;;;;;5076649;28;20051;-66
2022/03/08 11:36:48;;;;;;;2.92;0.30;;;18.70;99.90;;;;;;5071076;28;20021;-66
2022/03/08 11:39:23;;;;;;;1.95;0.20;;;18.70;99.90;;;;;;5067398;28;20040;-66
2022/03/08 11:41:58;;;;;;;1.08;0.28;;;18.80;99.90;;;;;;5075117;28;20064;-65
2022/03/08 11:44:29;;;;;;;1.35;0.30;;;18.80;99.90;;;;;;5066092;28;20611;-65
2022/03/08 11:47:00;;;;;;;1.55;0.20;;;18.90;99.90;;;;;;5068833;28;20025;-65
2022/03/08 11:49:44;;;;;;;2.35;0.30;;;18.80;99.90;;;;;;5071655;28;20032;-66
2022/03/08 11:52:33;;;;;;;3.27;0.30;;;18.80;99.90;;;;;;5073254;28;20144;-66
2022/03/08 11:55:03;;;;;;;6.38;0.52;;;18.80;99.90;;;;;;5077724;28;20370;-66
2022/03/08 11:57:52;;;;;;;4.22;0.30;;;18.80;99.90;;;;;;5075843;28;20028;-65
2022/03/08 12:00:23;;;;;;;2.00;0.30;;;18.80;99.90;;;;;;5073672;28;20028;-65
2022/03/08 12:02:53;;;;;;;1.98;0.32;;;18.80;99.90;;;;;;5078521;28;20048;-66
2022/03/08 12:05:40;;;;;;;3.13;0.47;;;18.70;99.90;;;;;;5076942;28;20021;-65
2022/03/08 12:08:28;;;;;;;0.90;0.13;;;18.80;99.90;;;;;;5071275;28;20100;-65
2022/03/08 12:11:13;;;;;;;2.42;0.30;;;18.70;99.90;;;;;;5066085;28;20024;-65
2022/03/08 12:13:47;;;;;;;2.30;0.28;;;18.70;99.90;;;;;;5075824;28;20028;-65
2022/03/08 12:16:32;;;;;;;3.83;0.47;;;18.70;99.90;;;;;;5074350;28;20396;-66
2022/03/08 12:19:02;;;;;;;2.05;0.55;;;18.60;99.90;;;;;;5066695;28;20055;-65
2022/03/08 12:21:31;;;;;;;2.53;0.40;;;18.60;99.90;;;;;;5077209;28;20124;-66
2022/03/08 12:24:06;;;;;;;2.60;0.22;;;18.60;99.90;;;;;;5068869;28;20028;-65
2022/03/08 12:26:50;;;;;;;2.38;0.40;;;18.60;99.90;;;;;;5074704;28;20029;-66
2022/03/08 12:29:20;;;;;;;2.03;0.50;;;18.60;99.90;;;;;;5069347;28;20100;-65
2022/03/08 12:32:05;;;;;;;1.45;0.30;;;18.60;99.90;;;;;;5067766;28;20028;-66
2022/03/08 12:34:47;;;;;;;2.35;0.45;;;18.60;99.90;;;;;;5064351;28;20028;-66
2022/03/08 12:37:22;;;;;;;2.60;0.38;;;18.60;99.90;;;;;;5066039;28;20044;-65
2022/03/08 12:40:00;;;;;;;2.58;0.20;;;18.60;99.90;;;;;;5073947;28;20076;-66
2022/03/08 12:42:39;;;;;;;3.25;0.38;;;18.60;99.90;;;;;;5067336;28;20025;-66
2022/03/08 12:45:09;;;;;;;2.28;0.40;;;18.60;99.90;;;;;;5064294;28;20367;-66
2022/03/08 12:47:49;;;;;;;4.35;0.30;;;18.60;99.90;;;;;;5069157;28;20017;-65
2022/03/08 12:50:24;;;;;;;2.50;0.20;;;18.60;99.90;;;;;;5065553;28;20045;-65
2022/03/08 12:53:10;;;;;;;1.55;0.30;;;18.50;99.90;;;;;;5072608;28;20035;-65
2022/03/08 12:55:44;;;;;;;1.73;0.25;;;18.60;99.90;;;;;;5066633;28;20136;-65
2022/03/08 12:58:18;;;;;;;4.50;0.30;;;18.60;99.90;;;;;;5076396;28;20025;-65
2022/03/08 13:00:46;;;;;;;1.55;0.28;;;18.60;99.90;;;;;;5064706;28;20025;-65